Time,TemperatureF,DewpointF,PressureIn,WindDirection,WindDirectionDegrees,WindSpeedMPH,WindSpeedGustMPH,Humidity,HourlyPrecipIn,Conditions,Clouds,dailyrainin,SoftwareType,DateUTC
2013-09-25 00:06:00,57.8,57.0,29.75,ESE,105,0.0,1.0,96,0.01,,,0.01,weatherlink.com 1.10,2013-09-24 23:06:00,
2013-09-25 00:22:00,57.9,57.0,29.75,ESE,109,2.0,2.0,96,0.01,,,0.01,weatherlink.com 1.10,2013-09-24 23:22:00,
2013-09-25 00:37:00,57.9,57.0,29.74,East,101,1.0,2.0,96,0.01,,,0.01,weatherlink.com 1.10,2013-09-24 23:37:00,
2013-09-25 00:52:00,57.9,57.0,29.74,East,94,0.0,2.0,96,0.01,,,0.01,weatherlink.com 1.10,2013-09-24 23:52:00,
2013-09-25 01:07:00,57.9,57.0,29.73,East,80,1.0,3.0,96,0.00,,,0.01,weatherlink.com 1.10,2013-09-25 00:07:00,
2013-09-25 01:22:00,57.7,57.0,29.73,NE,38,0.0,2.0,97,0.00,,,0.01,weatherlink.com 1.10,2013-09-25 00:22:00,
2013-09-25 01:37:00,57.7,57.0,29.73,ESE,103,0.0,2.0,97,0.00,,,0.01,weatherlink.com 1.10,2013-09-25 00:37:00,
2013-09-25 01:52:00,57.8,57.0,29.74,East,99,0.0,1.0,97,0.00,,,0.01,weatherlink.com 1.10,2013-09-25 00:52:00,
2013-09-25 02:07:00,57.7,57.0,29.74,SE,127,0.0,1.0,97,0.00,,,0.01,weatherlink.com 1.10,2013-09-25 01:07:00,
2013-09-25 02:22:00,57.8,57.0,29.73,East,92,0.0,1.0,97,0.00,,,0.01,weatherlink.com 1.10,2013-09-25 01:22:00,
2013-09-25 02:37:00,57.8,57.0,29.72,North,350,2.0,3.0,97,0.00,,,0.01,weatherlink.com 1.10,2013-09-25 01:37:00,
2013-09-25 02:52:00,57.9,57.0,29.73,East,80,1.0,1.0,97,0.00,,,0.01,weatherlink.com 1.10,2013-09-25 01:52:00,
2013-09-25 03:07:00,58.0,57.0,29.72,ESE,108,0.0,1.0,97,0.00,,,0.01,weatherlink.com 1.10,2013-09-25 02:07:00,
2013-09-25 03:22:00,58.1,57.0,29.72,WSW,238,0.0,1.0,97,0.00,,,0.01,weatherlink.com 1.10,2013-09-25 02:22:00,
2013-09-25 03:37:00,58.1,57.0,29.72,WSW,238,0.0,0.0,97,0.00,,,0.01,weatherlink.com 1.10,2013-09-25 02:37:00,
2013-09-25 03:52:00,58.1,57.0,29.72,WSW,238,0.0,0.0,97,0.00,,,0.01,weatherlink.com 1.10,2013-09-25 02:52:00,
2013-09-25 04:07:00,58.1,57.0,29.71,WSW,238,0.0,1.0,97,0.00,,,0.01,weatherlink.com 1.10,2013-09-25 03:07:00,
2013-09-25 04:22:00,58.1,57.0,29.71,WSW,238,0.0,1.0,97,0.00,,,0.01,weatherlink.com 1.10,2013-09-25 03:22:00,
2013-09-25 04:37:00,58.1,57.0,29.70,ENE,60,0.0,1.0,97,0.00,,,0.01,weatherlink.com 1.10,2013-09-25 03:37:00,
2013-09-25 04:52:00,58.1,57.0,29.70,East,92,0.0,1.0,97,0.00,,,0.01,weatherlink.com 1.10,2013-09-25 03:52:00,
2013-09-25 05:07:00,57.9,57.0,29.70,ESE,105,1.0,1.0,97,0.00,,,0.01,weatherlink.com 1.10,2013-09-25 04:07:00,
2013-09-25 05:22:00,57.8,57.0,29.69,ESE,105,1.0,1.0,97,0.00,,,0.01,weatherlink.com 1.10,2013-09-25 04:22:00,
2013-09-25 05:37:00,57.7,57.0,29.69,ESE,110,1.0,2.0,97,0.00,,,0.01,weatherlink.com 1.10,2013-09-25 04:37:00,
2013-09-25 05:52:00,57.7,57.0,29.69,SE,132,0.0,2.0,97,0.00,,,0.01,weatherlink.com 1.10,2013-09-25 04:52:00,
2013-09-25 06:07:00,57.7,57.0,29.69,SE,134,1.0,3.0,97,0.00,,,0.01,weatherlink.com 1.10,2013-09-25 05:07:00,
2013-09-25 06:22:00,57.5,57.0,29.69,East,94,2.0,3.0,97,0.00,,,0.01,weatherlink.com 1.10,2013-09-25 05:22:00,
2013-09-25 06:37:00,57.4,57.0,29.69,ESE,106,1.0,3.0,97,0.00,,,0.01,weatherlink.com 1.10,2013-09-25 05:37:00,
2013-09-25 06:52:00,57.3,57.0,29.69,East,94,1.0,2.0,97,0.00,,,0.01,weatherlink.com 1.10,2013-09-25 05:52:00,
2013-09-25 07:07:00,57.3,57.0,29.70,East,101,1.0,2.0,97,0.00,,,0.01,weatherlink.com 1.10,2013-09-25 06:07:00,
2013-09-25 07:22:00,57.2,56.0,29.70,East,90,2.0,3.0,97,0.00,,,0.01,weatherlink.com 1.10,2013-09-25 06:22:00,
2013-09-25 07:37:00,57.2,56.0,29.70,East,95,2.0,2.0,97,0.00,,,0.01,weatherlink.com 1.10,2013-09-25 06:37:00,
2013-09-25 07:52:00,57.2,56.0,29.70,ENE,70,2.0,3.0,97,0.00,,,0.01,weatherlink.com 1.10,2013-09-25 06:52:00,
2013-09-25 08:07:00,57.1,56.0,29.70,East,92,2.0,3.0,97,0.00,,,0.01,weatherlink.com 1.10,2013-09-25 07:07:00,
2013-09-25 08:22:00,57.2,56.0,29.70,ESE,118,2.0,2.0,97,0.00,,,0.01,weatherlink.com 1.10,2013-09-25 07:22:00,
2013-09-25 08:37:00,57.2,56.0,29.70,ESE,105,1.0,2.0,97,0.00,,,0.01,weatherlink.com 1.10,2013-09-25 07:37:00,
2013-09-25 08:52:00,57.2,56.0,29.70,ESE,115,2.0,2.0,97,0.00,,,0.01,weatherlink.com 1.10,2013-09-25 07:52:00,
2013-09-25 09:07:00,57.3,57.0,29.70,SE,130,1.0,3.0,98,0.00,,,0.01,weatherlink.com 1.10,2013-09-25 08:07:00,
2013-09-25 09:22:00,57.5,57.0,29.70,ESE,103,2.0,4.0,98,0.00,,,0.01,weatherlink.com 1.10,2013-09-25 08:22:00,
2013-09-25 09:37:00,57.6,57.0,29.70,ESE,110,2.0,3.0,98,0.00,,,0.01,weatherlink.com 1.10,2013-09-25 08:37:00,
2013-09-25 09:52:00,58.1,58.0,29.70,ENE,70,2.0,3.0,98,0.00,,,0.01,weatherlink.com 1.10,2013-09-25 08:52:00,
2013-09-25 10:07:00,58.4,58.0,29.70,East,90,1.0,3.0,98,0.00,,,0.01,weatherlink.com 1.10,2013-09-25 09:07:00,
2013-09-25 10:22:00,58.7,58.0,29.70,ENE,65,3.0,4.0,97,0.00,,,0.01,weatherlink.com 1.10,2013-09-25 09:22:00,
2013-09-25 10:37:00,59.3,59.0,29.70,ESE,105,2.0,3.0,98,0.00,,,0.01,weatherlink.com 1.10,2013-09-25 09:37:00,
2013-09-25 10:52:00,59.3,59.0,29.70,North,11,4.0,5.0,97,0.00,,,0.01,weatherlink.com 1.10,2013-09-25 09:52:00,
2013-09-25 11:07:00,59.5,59.0,29.70,ENE,76,3.0,5.0,97,0.00,,,0.01,weatherlink.com 1.10,2013-09-25 10:07:00,
2013-09-25 11:23:00,59.1,58.0,29.70,East,82,4.0,4.0,96,0.00,,,0.01,weatherlink.com 1.10,2013-09-25 10:23:00,
2013-09-25 11:38:00,59.0,58.0,29.70,ESE,111,2.0,5.0,97,0.00,,,0.01,weatherlink.com 1.10,2013-09-25 10:38:00,
2013-09-25 11:53:00,58.7,58.0,29.70,NNE,28,1.0,4.0,96,0.00,,,0.01,weatherlink.com 1.10,2013-09-25 10:53:00,
2013-09-25 12:08:00,58.7,58.0,29.70,East,91,1.0,4.0,96,0.00,,,0.01,weatherlink.com 1.10,2013-09-25 11:08:00,
2013-09-25 12:23:00,58.9,58.0,29.70,East,97,3.0,4.0,96,0.00,,,0.01,weatherlink.com 1.10,2013-09-25 11:23:00,
2013-09-25 12:38:00,58.9,58.0,29.70,ESE,108,1.0,4.0,96,0.00,,,0.01,weatherlink.com 1.10,2013-09-25 11:38:00,
2013-09-25 12:53:00,59.0,58.0,29.70,East,79,3.0,4.0,96,0.00,,,0.01,weatherlink.com 1.10,2013-09-25 11:53:00,
2013-09-25 13:08:00,58.7,58.0,29.70,SE,132,1.0,4.0,96,0.00,,,0.01,weatherlink.com 1.10,2013-09-25 12:08:00,
2013-09-25 13:23:00,58.8,58.0,29.70,SE,133,2.0,4.0,96,0.00,,,0.01,weatherlink.com 1.10,2013-09-25 12:23:00,
2013-09-25 13:38:00,59.0,58.0,29.70,SE,129,4.0,5.0,96,0.00,,,0.01,weatherlink.com 1.10,2013-09-25 12:38:00,
2013-09-25 13:53:00,58.6,58.0,29.70,East,92,3.0,6.0,96,0.00,,,0.01,weatherlink.com 1.10,2013-09-25 12:53:00,
2013-09-25 14:08:00,58.5,57.0,29.70,ESE,111,1.0,5.0,96,0.00,,,0.01,weatherlink.com 1.10,2013-09-25 13:08:00,
2013-09-25 14:23:00,58.6,58.0,29.70,East,88,2.0,4.0,96,0.00,,,0.01,weatherlink.com 1.10,2013-09-25 13:23:00,
2013-09-25 14:38:00,58.8,58.0,29.70,East,84,4.0,5.0,96,0.00,,,0.01,weatherlink.com 1.10,2013-09-25 13:38:00,
2013-09-25 14:53:00,58.7,58.0,29.70,ENE,73,3.0,4.0,96,0.00,,,0.01,weatherlink.com 1.10,2013-09-25 13:53:00,
2013-09-25 15:08:00,58.9,58.0,29.69,ENE,58,5.0,5.0,95,0.00,,,0.01,weatherlink.com 1.10,2013-09-25 14:08:00,
2013-09-25 15:23:00,58.8,57.0,29.70,East,100,3.0,4.0,95,0.00,,,0.01,weatherlink.com 1.10,2013-09-25 14:23:00,
2013-09-25 15:38:00,58.3,57.0,29.70,ENE,73,6.0,8.0,95,0.00,,,0.01,weatherlink.com 1.10,2013-09-25 14:38:00,
2013-09-25 15:53:00,57.7,56.0,29.70,SE,127,2.0,6.0,95,0.00,,,0.01,weatherlink.com 1.10,2013-09-25 14:53:00,
2013-09-25 16:08:00,57.6,57.0,29.70,ENE,67,5.0,7.0,96,0.00,,,0.01,weatherlink.com 1.10,2013-09-25 15:08:00,
2013-09-25 16:23:00,57.3,56.0,29.70,ENE,77,2.0,6.0,96,0.00,,,0.01,weatherlink.com 1.10,2013-09-25 15:23:00,
2013-09-25 16:38:00,57.3,56.0,29.70,ESE,117,3.0,6.0,96,0.00,,,0.01,weatherlink.com 1.10,2013-09-25 15:38:00,
2013-09-25 16:53:00,57.3,56.0,29.70,East,94,2.0,5.0,96,0.00,,,0.01,weatherlink.com 1.10,2013-09-25 15:53:00,
2013-09-25 17:08:00,57.3,56.0,29.70,East,94,2.0,3.0,96,0.00,,,0.01,weatherlink.com 1.10,2013-09-25 16:08:00,
2013-09-25 17:23:00,57.1,56.0,29.70,SSE,156,2.0,6.0,96,0.00,,,0.01,weatherlink.com 1.10,2013-09-25 16:23:00,
2013-09-25 17:38:00,57.0,56.0,29.70,East,92,5.0,6.0,96,0.00,,,0.01,weatherlink.com 1.10,2013-09-25 16:38:00,
2013-09-25 17:53:00,56.8,56.0,29.70,East,94,4.0,6.0,96,0.00,,,0.01,weatherlink.com 1.10,2013-09-25 16:53:00,
2013-09-25 18:08:00,56.9,56.0,29.70,ENE,71,3.0,4.0,97,0.00,,,0.01,weatherlink.com 1.10,2013-09-25 17:08:00,
2013-09-25 18:23:00,56.9,56.0,29.70,ESE,120,2.0,5.0,96,0.00,,,0.01,weatherlink.com 1.10,2013-09-25 17:23:00,
2013-09-25 18:38:00,56.8,56.0,29.71,ESE,111,3.0,5.0,96,0.00,,,0.01,weatherlink.com 1.10,2013-09-25 17:38:00,
2013-09-25 18:53:00,56.8,56.0,29.71,East,89,4.0,5.0,96,0.00,,,0.01,weatherlink.com 1.10,2013-09-25 17:53:00,
2013-09-25 19:08:00,56.8,56.0,29.71,ESE,110,2.0,5.0,96,0.00,,,0.01,weatherlink.com 1.10,2013-09-25 18:08:00,
2013-09-25 19:23:00,56.8,56.0,29.71,East,100,1.0,6.0,96,0.00,,,0.01,weatherlink.com 1.10,2013-09-25 18:23:00,
2013-09-25 19:38:00,56.8,56.0,29.71,ESE,118,4.0,5.0,96,0.00,,,0.01,weatherlink.com 1.10,2013-09-25 18:38:00,
2013-09-25 19:53:00,56.8,56.0,29.72,ESE,111,1.0,3.0,96,0.00,,,0.01,weatherlink.com 1.10,2013-09-25 18:53:00,
2013-09-25 20:08:00,56.7,56.0,29.72,East,98,1.0,3.0,96,0.00,,,0.01,weatherlink.com 1.10,2013-09-25 19:08:00,
2013-09-25 20:23:00,56.7,56.0,29.72,ESE,111,3.0,5.0,96,0.00,,,0.01,weatherlink.com 1.10,2013-09-25 19:23:00,
2013-09-25 20:38:00,56.6,56.0,29.72,ESE,120,2.0,4.0,96,0.00,,,0.01,weatherlink.com 1.10,2013-09-25 19:38:00,
2013-09-25 20:53:00,56.6,56.0,29.73,ENE,74,2.0,4.0,96,0.00,,,0.01,weatherlink.com 1.10,2013-09-25 19:53:00,
2013-09-25 21:08:00,56.6,56.0,29.73,East,96,2.0,4.0,96,0.00,,,0.01,weatherlink.com 1.10,2013-09-25 20:08:00,
2013-09-25 21:23:00,56.6,56.0,29.73,East,84,4.0,6.0,96,0.00,,,0.01,weatherlink.com 1.10,2013-09-25 20:23:00,
2013-09-25 21:38:00,56.5,55.0,29.73,ESE,107,2.0,6.0,96,0.00,,,0.01,weatherlink.com 1.10,2013-09-25 20:38:00,
2013-09-25 21:53:00,56.3,55.0,29.73,ENE,67,2.0,4.0,96,0.00,,,0.01,weatherlink.com 1.10,2013-09-25 20:53:00,
2013-09-25 22:08:00,56.3,55.0,29.74,East,86,2.0,4.0,96,0.01,,,0.02,weatherlink.com 1.10,2013-09-25 21:08:00,
2013-09-25 22:23:00,56.2,55.0,29.74,East,89,2.0,6.0,96,0.01,,,0.02,weatherlink.com 1.10,2013-09-25 21:23:00,
2013-09-25 22:38:00,56.2,55.0,29.74,SE,127,3.0,6.0,96,0.01,,,0.02,weatherlink.com 1.10,2013-09-25 21:38:00,
2013-09-25 22:53:00,56.2,55.0,29.74,East,90,4.0,6.0,96,0.01,,,0.02,weatherlink.com 1.10,2013-09-25 21:53:00,
2013-09-25 23:08:00,56.2,55.0,29.74,SE,130,2.0,6.0,97,0.00,,,0.02,weatherlink.com 1.10,2013-09-25 22:08:00,
2013-09-25 23:23:00,56.2,55.0,29.74,East,82,1.0,4.0,97,0.00,,,0.02,weatherlink.com 1.10,2013-09-25 22:23:00,
2013-09-25 23:38:00,56.3,56.0,29.75,East,94,3.0,4.0,97,0.01,,,0.02,weatherlink.com 1.10,2013-09-25 22:38:00,
2013-09-25 23:53:00,56.4,56.0,29.75,East,96,3.0,5.0,97,0.01,,,0.02,weatherlink.com 1.10,2013-09-25 22:53:00,